createdAt,value
2019-03-26T00:00:01.781Z,6.30
2019-03-26T00:02:29.314Z,6.40
2019-03-26T00:04:56.948Z,6.30
2019-03-26T00:07:24.388Z,6.30
2019-03-26T00:09:51.889Z,6.30
2019-03-26T00:12:19.432Z,6.30
2019-03-26T00:14:46.963Z,6.30
2019-03-26T00:17:14.568Z,6.30
2019-03-26T00:19:42.176Z,6.30
2019-03-26T00:22:09.743Z,6.30
2019-03-26T00:24:37.409Z,6.30
2019-03-26T00:27:07.670Z,6.30
2019-03-26T00:29:34.403Z,6.30
2019-03-26T00:32:02.041Z,6.30
2019-03-26T00:34:32.414Z,6.30
2019-03-26T00:36:59.920Z,6.30
2019-03-26T00:39:27.515Z,6.30
2019-03-26T00:41:55.138Z,6.30
2019-03-26T00:44:22.723Z,6.40
2019-03-26T00:46:50.328Z,6.40
2019-03-26T00:49:17.810Z,6.40
2019-03-26T00:51:45.312Z,6.40
2019-03-26T00:54:12.796Z,6.40
2019-03-26T00:56:40.430Z,6.40
2019-03-26T00:59:07.886Z,6.30
2019-03-26T01:01:35.323Z,6.30
2019-03-26T01:04:02.925Z,6.30
2019-03-26T01:06:30.519Z,6.30
2019-03-26T01:08:58.154Z,6.20
2019-03-26T01:11:25.842Z,6.20
2019-03-26T01:13:53.431Z,6.20
2019-03-26T01:16:21.172Z,6.20
2019-03-26T01:18:48.728Z,6.10
2019-03-26T01:21:16.463Z,6.10
2019-03-26T01:23:43.879Z,6.10
2019-03-26T01:26:11.445Z,6.10
2019-03-26T01:28:39.000Z,6.10
2019-03-26T01:31:06.554Z,6.10
2019-03-26T01:33:34.293Z,6.00
2019-03-26T01:36:01.784Z,6.00
2019-03-26T01:38:29.320Z,6.00
2019-03-26T01:40:56.867Z,6.00
2019-03-26T01:43:24.400Z,6.00
2019-03-26T01:45:52.058Z,5.90
2019-03-26T01:48:19.551Z,5.90
2019-03-26T01:50:47.281Z,5.90
2019-03-26T01:53:14.804Z,5.90
2019-03-26T01:55:42.511Z,5.90
2019-03-26T01:58:10.022Z,5.90
2019-03-26T02:00:37.697Z,5.90
2019-03-26T02:03:05.147Z,5.90
2019-03-26T02:05:32.848Z,5.80
2019-03-26T02:08:00.271Z,5.80
2019-03-26T02:10:27.842Z,5.80
2019-03-26T02:12:55.343Z,5.80
2019-03-26T02:15:30.911Z,5.80
2019-03-26T02:17:59.201Z,5.80
2019-03-26T02:20:26.820Z,5.80
2019-03-26T02:22:54.389Z,5.70
2019-03-26T02:25:22.103Z,5.70
2019-03-26T02:27:49.682Z,5.70
2019-03-26T02:30:17.274Z,5.70
2019-03-26T02:32:45.035Z,5.70
2019-03-26T02:35:18.143Z,5.70
2019-03-26T02:37:42.082Z,5.70
2019-03-26T02:40:09.663Z,5.70
2019-03-26T02:42:37.240Z,5.60
2019-03-26T02:45:04.779Z,5.60
2019-03-26T02:47:32.326Z,5.50
2019-03-26T02:49:59.899Z,5.50
2019-03-26T02:52:28.863Z,5.50
2019-03-26T02:54:56.428Z,5.50
2019-03-26T02:57:23.873Z,5.50
2019-03-26T02:59:51.362Z,5.40
2019-03-26T03:02:18.915Z,5.40
2019-03-26T03:04:46.536Z,5.40
2019-03-26T03:07:17.136Z,5.30
2019-03-26T03:09:44.617Z,5.30
2019-03-26T03:12:12.262Z,5.40
2019-03-26T03:14:39.996Z,5.40
2019-03-26T03:17:07.682Z,5.30
2019-03-26T03:19:35.203Z,5.20
2019-03-26T03:22:02.666Z,5.20
2019-03-26T03:24:30.418Z,5.20
2019-03-26T03:26:57.957Z,5.20
2019-03-26T03:29:25.580Z,5.20
2019-03-26T03:31:53.124Z,5.10
2019-03-26T03:34:20.757Z,5.20
2019-03-26T03:36:48.410Z,5.20
2019-03-26T03:39:15.872Z,5.10
2019-03-26T03:41:43.725Z,5.10
2019-03-26T03:44:11.226Z,5.10
2019-03-26T03:46:39.992Z,5.00
2019-03-26T03:49:07.970Z,5.10
2019-03-26T03:51:36.852Z,5.10
2019-03-26T03:54:04.924Z,5.10
2019-03-26T03:56:35.960Z,5.10
2019-03-26T03:59:05.181Z,5.00
2019-03-26T04:01:32.718Z,4.90
2019-03-26T04:04:00.176Z,4.90
2019-03-26T04:06:27.802Z,4.80
2019-03-26T04:08:56.686Z,4.80
2019-03-26T04:11:24.787Z,4.70
2019-03-26T04:13:52.439Z,4.70
2019-03-26T04:16:20.079Z,4.70
2019-03-26T04:18:47.597Z,4.60
2019-03-26T04:21:15.174Z,4.60
2019-03-26T04:23:42.669Z,4.60
2019-03-26T04:26:10.359Z,4.60
2019-03-26T04:28:37.918Z,4.50
2019-03-26T04:31:05.555Z,4.50
2019-03-26T04:33:33.052Z,4.50
2019-03-26T04:36:00.681Z,4.60
2019-03-26T04:38:28.247Z,4.60
2019-03-26T04:40:55.742Z,4.70
2019-03-26T04:43:23.306Z,4.80
2019-03-26T04:45:50.823Z,4.80
2019-03-26T04:48:18.346Z,4.80
2019-03-26T04:50:45.940Z,4.80
2019-03-26T04:53:13.502Z,4.80
2019-03-26T04:55:40.976Z,4.80
2019-03-26T04:58:08.556Z,4.90
2019-03-26T05:00:36.291Z,4.90
2019-03-26T05:03:03.974Z,4.90
2019-03-26T05:05:31.579Z,4.90
2019-03-26T05:07:59.150Z,5.00
2019-03-26T05:10:26.665Z,5.10
2019-03-26T05:12:54.368Z,5.10
2019-03-26T05:15:23.398Z,5.10
2019-03-26T05:17:50.924Z,5.10
2019-03-26T05:20:18.450Z,5.10
2019-03-26T05:22:46.060Z,5.10
2019-03-26T05:25:13.492Z,5.20
2019-03-26T05:27:45.731Z,5.20
2019-03-26T05:30:12.090Z,5.20
2019-03-26T05:32:39.623Z,5.10
2019-03-26T05:35:07.285Z,5.10
2019-03-26T05:37:35.087Z,5.20
2019-03-26T05:40:03.281Z,5.10
2019-03-26T05:42:30.921Z,5.20
2019-03-26T05:44:58.453Z,5.20
2019-03-26T05:47:26.117Z,5.20
2019-03-26T05:49:53.668Z,5.30
2019-03-26T05:52:21.289Z,5.30
2019-03-26T05:54:48.870Z,5.40
2019-03-26T05:57:16.446Z,5.50
2019-03-26T05:59:44.130Z,5.60
2019-03-26T06:02:15.275Z,5.70
2019-03-26T06:04:41.204Z,5.80
2019-03-26T06:07:08.735Z,5.80
2019-03-26T06:09:36.411Z,5.90
2019-03-26T06:12:04.024Z,6.00
2019-03-26T06:14:31.614Z,6.00
2019-03-26T06:16:59.262Z,6.10
2019-03-26T06:19:26.904Z,6.10
2019-03-26T06:21:55.933Z,6.20
2019-03-26T06:24:23.566Z,6.30
2019-03-26T06:26:51.148Z,6.30
2019-03-26T06:29:19.850Z,6.40
2019-03-26T06:31:47.417Z,6.40
2019-03-26T06:34:14.933Z,6.40
2019-03-26T06:36:42.826Z,6.50
2019-03-26T06:39:10.353Z,6.60
2019-03-26T06:41:40.884Z,6.60
2019-03-26T06:44:08.547Z,6.80
2019-03-26T06:46:37.371Z,6.90
2019-03-26T06:49:05.125Z,7.00
2019-03-26T06:51:32.885Z,7.10
2019-03-26T06:54:00.680Z,7.20
2019-03-26T06:56:28.417Z,7.30
2019-03-26T06:58:56.238Z,7.30
2019-03-26T07:01:23.875Z,7.30
2019-03-26T07:03:51.766Z,7.30
2019-03-26T07:06:19.996Z,7.40
2019-03-26T07:08:47.882Z,7.50
2019-03-26T07:11:15.676Z,7.70
2019-03-26T07:13:43.497Z,7.80
2019-03-26T07:16:13.267Z,8.00
2019-03-26T07:18:40.958Z,8.10
2019-03-26T07:21:08.791Z,8.20
2019-03-26T07:23:36.592Z,8.20
2019-03-26T07:26:04.175Z,8.30
2019-03-26T07:28:33.177Z,8.20
2019-03-26T07:31:00.958Z,8.10
2019-03-26T07:33:28.647Z,8.10
2019-03-26T07:35:56.279Z,8.00
2019-03-26T07:38:23.968Z,7.90
2019-03-26T07:40:51.763Z,7.90
2019-03-26T07:43:19.347Z,7.80
2019-03-26T07:45:46.931Z,7.80
2019-03-26T07:48:14.496Z,7.90
2019-03-26T07:50:52.288Z,7.80
2019-03-26T07:53:23.118Z,7.70
2019-03-26T07:55:50.959Z,7.60
2019-03-26T07:58:18.519Z,7.70
2019-03-26T08:00:46.077Z,7.60
2019-03-26T08:03:13.616Z,7.60
2019-03-26T08:05:41.181Z,7.60
2019-03-26T08:08:08.731Z,7.60
2019-03-26T08:10:36.353Z,7.60
2019-03-26T08:13:04.013Z,7.60
2019-03-26T08:15:32.089Z,7.60
2019-03-26T08:17:59.752Z,7.70
2019-03-26T08:20:27.346Z,7.70
2019-03-26T08:22:54.975Z,7.70
2019-03-26T08:25:22.553Z,7.70
2019-03-26T08:27:50.060Z,7.70
2019-03-26T08:30:17.507Z,7.60
2019-03-26T08:32:45.095Z,7.60
2019-03-26T08:35:12.735Z,7.60
2019-03-26T08:37:40.245Z,7.60
2019-03-26T08:40:07.846Z,7.70
2019-03-26T08:42:35.445Z,7.70
2019-03-26T08:45:03.781Z,7.80
2019-03-26T08:47:31.419Z,7.80
2019-03-26T08:49:59.135Z,7.80
2019-03-26T08:52:26.732Z,7.80
2019-03-26T08:54:54.225Z,7.90
2019-03-26T08:57:21.919Z,7.90
2019-03-26T08:59:49.502Z,7.90
2019-03-26T09:02:17.054Z,7.90
2019-03-26T09:04:44.684Z,7.90
2019-03-26T09:07:12.212Z,7.90
2019-03-26T09:09:39.993Z,7.90
2019-03-26T09:12:07.590Z,7.90
2019-03-26T09:14:35.274Z,7.90
2019-03-26T09:17:02.793Z,7.80
2019-03-26T09:19:30.262Z,7.80
2019-03-26T09:21:58.039Z,7.80
2019-03-26T09:24:25.829Z,7.80
2019-03-26T09:26:53.417Z,7.80
2019-03-26T09:29:21.001Z,7.80
2019-03-26T09:31:48.544Z,7.80
2019-03-26T09:34:16.203Z,7.80
2019-03-26T09:36:43.737Z,7.90
2019-03-26T09:39:11.313Z,7.90
2019-03-26T09:41:38.781Z,7.90
2019-03-26T09:44:06.386Z,8.00
2019-03-26T09:46:33.928Z,8.10
2019-03-26T09:49:01.487Z,8.20
2019-03-26T09:51:29.015Z,8.30
2019-03-26T09:53:56.932Z,8.30
2019-03-26T09:56:30.621Z,8.40
2019-03-26T09:58:54.130Z,8.30
2019-03-26T10:01:21.912Z,8.30
2019-03-26T10:03:49.870Z,8.30
2019-03-26T10:06:23.209Z,8.40
2019-03-26T10:08:52.284Z,8.30
2019-03-26T10:11:16.205Z,8.40
2019-03-26T10:13:46.568Z,8.40
2019-03-26T10:16:14.686Z,8.50
2019-03-26T10:18:42.414Z,8.60
2019-03-26T10:21:09.990Z,8.80
2019-03-26T10:23:37.728Z,9.20
2019-03-26T10:26:07.306Z,9.40
2019-03-26T10:28:34.936Z,9.60
2019-03-26T10:31:02.608Z,9.70
2019-03-26T10:33:30.352Z,9.80
2019-03-26T10:35:57.972Z,9.70
2019-03-26T10:38:25.878Z,9.60
2019-03-26T10:40:53.461Z,9.50
2019-03-26T10:43:21.084Z,9.40
2019-03-26T10:45:48.744Z,9.40
2019-03-26T10:48:16.258Z,9.30
2019-03-26T10:50:44.230Z,9.20
2019-03-26T10:53:11.694Z,9.30
2019-03-26T10:55:39.327Z,9.30
2019-03-26T10:58:06.929Z,9.40
2019-03-26T11:00:34.676Z,9.50
2019-03-26T11:03:02.313Z,9.60
2019-03-26T11:05:29.764Z,9.60
2019-03-26T11:07:57.348Z,9.60
2019-03-26T11:10:24.845Z,9.60
2019-03-26T11:12:52.429Z,9.60
2019-03-26T11:15:20.334Z,9.70
2019-03-26T11:17:48.519Z,9.80
2019-03-26T11:20:17.004Z,10.00
2019-03-26T11:22:44.621Z,10.00
2019-03-26T11:25:12.766Z,9.90
2019-03-26T11:27:45.700Z,9.90
2019-03-26T11:30:15.126Z,9.90
2019-03-26T11:32:42.772Z,9.90
2019-03-26T11:35:10.686Z,9.80
2019-03-26T11:37:38.857Z,9.70
2019-03-26T11:40:07.787Z,9.70
2019-03-26T11:42:35.545Z,9.70
2019-03-26T11:45:05.097Z,9.60
2019-03-26T11:47:32.695Z,9.60
2019-03-26T11:50:00.346Z,9.70
2019-03-26T11:52:30.341Z,9.60
2019-03-26T11:54:58.031Z,9.70
2019-03-26T11:57:25.631Z,9.70
2019-03-26T11:59:53.119Z,9.60
2019-03-26T12:02:20.833Z,9.50
2019-03-26T12:04:48.608Z,9.40
2019-03-26T12:07:16.193Z,9.40
2019-03-26T12:09:46.638Z,9.40
2019-03-26T12:12:13.035Z,9.50
2019-03-26T12:14:40.741Z,9.70
2019-03-26T12:17:08.419Z,9.70
2019-03-26T12:19:36.089Z,9.80
2019-03-26T12:22:03.946Z,9.90
2019-03-26T12:24:31.621Z,10.00
2019-03-26T12:26:59.197Z,10.10
2019-03-26T12:29:26.779Z,10.30
2019-03-26T12:31:54.425Z,10.40
2019-03-26T12:34:21.977Z,10.50
2019-03-26T12:36:49.614Z,10.60
2019-03-26T12:39:17.199Z,10.60
2019-03-26T12:41:44.825Z,10.70
2019-03-26T12:44:12.427Z,10.70
2019-03-26T12:46:40.074Z,10.70
2019-03-26T12:49:07.747Z,10.60
2019-03-26T12:51:35.313Z,10.60
2019-03-26T12:54:03.064Z,10.50
2019-03-26T12:56:31.003Z,10.50
2019-03-26T12:58:58.604Z,10.60
2019-03-26T13:01:26.170Z,10.70
2019-03-26T13:03:53.700Z,10.70
2019-03-26T13:06:21.294Z,10.80
2019-03-26T13:08:48.921Z,10.80
2019-03-26T13:11:17.253Z,10.80
2019-03-26T13:13:45.243Z,10.80
2019-03-26T13:16:12.751Z,10.80
2019-03-26T13:18:47.460Z,10.90
2019-03-26T13:21:15.029Z,10.90
2019-03-26T13:23:42.499Z,11.00
2019-03-26T13:26:10.177Z,11.10
2019-03-26T13:28:37.730Z,11.10
2019-03-26T13:31:05.534Z,11.10
2019-03-26T13:33:34.211Z,11.10
2019-03-26T13:36:01.922Z,11.00
2019-03-26T13:38:30.740Z,11.00
2019-03-26T13:40:58.198Z,11.00
2019-03-26T13:43:26.956Z,11.00
2019-03-26T13:45:54.511Z,10.90
2019-03-26T13:48:22.101Z,10.90
2019-03-26T13:50:49.745Z,11.00
2019-03-26T13:53:17.312Z,11.00
2019-03-26T13:55:45.204Z,10.90
2019-03-26T13:58:13.029Z,11.00
2019-03-26T14:00:40.788Z,11.00
2019-03-26T14:03:08.600Z,10.80
2019-03-26T14:05:36.283Z,10.80
2019-03-26T14:08:04.041Z,10.70
2019-03-26T14:10:40.680Z,10.70
2019-03-26T14:13:00.950Z,10.80
2019-03-26T14:15:28.418Z,10.80
2019-03-26T14:17:55.904Z,10.90
2019-03-26T14:20:23.516Z,11.00
2019-03-26T14:22:51.611Z,11.00
2019-03-26T14:25:19.237Z,11.00
2019-03-26T14:27:46.962Z,11.10
2019-03-26T14:30:16.368Z,11.30
2019-03-26T14:32:43.974Z,11.40
2019-03-26T14:35:11.567Z,11.30
2019-03-26T14:37:50.716Z,11.10
2019-03-26T14:40:09.039Z,11.00
2019-03-26T14:42:36.817Z,10.90
2019-03-26T14:45:06.353Z,10.80
2019-03-26T14:47:33.931Z,10.70
2019-03-26T14:50:01.658Z,10.70
2019-03-26T14:52:29.275Z,10.60
2019-03-26T14:54:56.824Z,10.60
2019-03-26T14:57:24.422Z,10.80
2019-03-26T14:59:51.991Z,10.90
2019-03-26T15:02:19.915Z,10.90
2019-03-26T15:04:47.564Z,11.00
2019-03-26T15:07:15.113Z,10.90
2019-03-26T15:09:42.614Z,10.90
2019-03-26T15:12:10.162Z,10.90
2019-03-26T15:14:37.926Z,10.90
2019-03-26T15:17:05.485Z,10.70
2019-03-26T15:19:33.104Z,10.70
2019-03-26T15:22:00.582Z,10.60
2019-03-26T15:24:28.133Z,10.50
2019-03-26T15:26:55.745Z,10.50
2019-03-26T15:29:23.212Z,10.60
2019-03-26T15:31:50.951Z,10.70
2019-03-26T15:34:18.503Z,10.70
2019-03-26T15:36:46.249Z,10.80
2019-03-26T15:39:13.936Z,10.70
2019-03-26T15:41:41.705Z,10.70
2019-03-26T15:44:09.244Z,10.70
2019-03-26T15:46:36.805Z,10.60
2019-03-26T15:49:04.440Z,10.60
2019-03-26T15:51:32.022Z,10.50
2019-03-26T15:53:59.682Z,10.50
2019-03-26T15:56:27.249Z,10.50
2019-03-26T15:58:54.988Z,10.50
2019-03-26T16:01:24.529Z,10.50
2019-03-26T16:03:52.156Z,10.50
2019-03-26T16:06:20.485Z,10.50
2019-03-26T16:08:48.232Z,10.50
2019-03-26T16:11:15.777Z,10.50
2019-03-26T16:13:43.391Z,10.40
2019-03-26T16:16:11.125Z,10.40
2019-03-26T16:18:39.188Z,10.40
2019-03-26T16:21:06.812Z,10.40
2019-03-26T16:23:34.420Z,10.40
2019-03-26T16:26:02.169Z,10.30
2019-03-26T16:28:29.729Z,10.30
2019-03-26T16:31:01.149Z,10.30
2019-03-26T16:33:31.191Z,10.20
2019-03-26T16:35:58.794Z,10.20
2019-03-26T16:38:34.123Z,10.20
2019-03-26T16:41:01.791Z,10.20
2019-03-26T16:43:30.132Z,10.20
2019-03-26T16:45:59.662Z,10.20
2019-03-26T16:48:27.800Z,10.10
2019-03-26T16:50:56.855Z,10.10
2019-03-26T16:53:28.386Z,10.10
2019-03-26T16:56:04.276Z,10.20
2019-03-26T16:58:37.182Z,10.10
2019-03-26T17:01:07.277Z,10.20
2019-03-26T17:03:46.139Z,10.10
2019-03-26T17:06:13.710Z,10.10
2019-03-26T17:08:43.488Z,10.10
2019-03-26T17:11:11.280Z,10.10
2019-03-26T17:13:39.005Z,10.10
2019-03-26T17:16:07.078Z,10.10
2019-03-26T17:18:34.843Z,10.10
2019-03-26T17:21:02.709Z,10.10
2019-03-26T17:23:30.445Z,10.10
2019-03-26T17:26:11.213Z,10.10
2019-03-26T17:28:38.773Z,10.10
2019-03-26T17:31:06.394Z,10.10
2019-03-26T17:33:34.610Z,10.10
2019-03-26T17:36:03.357Z,10.10
2019-03-26T17:38:31.145Z,10.00
2019-03-26T17:40:58.759Z,9.90
2019-03-26T17:43:26.421Z,9.90
2019-03-26T17:45:54.778Z,9.90
2019-03-26T17:48:23.567Z,9.90
2019-03-26T17:50:51.376Z,9.80
2019-03-26T17:53:19.018Z,9.80
2019-03-26T17:55:46.860Z,9.80
2019-03-26T17:58:15.423Z,9.80
2019-03-26T18:00:45.255Z,9.70
2019-03-26T18:03:25.761Z,9.70
2019-03-26T18:05:42.820Z,9.70
2019-03-26T18:08:10.922Z,9.70
2019-03-26T18:10:38.703Z,9.70
2019-03-26T18:13:06.392Z,9.70
2019-03-26T18:15:34.098Z,9.70
2019-03-26T18:18:01.818Z,9.60
2019-03-26T18:20:32.823Z,9.60
2019-03-26T18:22:58.862Z,9.50
2019-03-26T18:25:26.479Z,9.60
2019-03-26T18:27:54.245Z,9.50
2019-03-26T18:30:21.918Z,9.50
2019-03-26T18:32:49.612Z,9.50
2019-03-26T18:35:17.299Z,9.50
2019-03-26T18:37:47.918Z,9.50
2019-03-26T18:40:15.452Z,9.40
2019-03-26T18:42:44.165Z,9.50
2019-03-26T18:45:15.027Z,9.40
2019-03-26T18:47:43.700Z,9.40
2019-03-26T18:50:13.711Z,9.30
2019-03-26T18:52:43.037Z,9.30
2019-03-26T18:55:11.287Z,9.30
2019-03-26T18:57:38.902Z,9.30
2019-03-26T19:00:09.223Z,9.30
2019-03-26T19:02:38.133Z,9.30
2019-03-26T19:05:07.129Z,9.30
2019-03-26T19:07:35.752Z,9.30
2019-03-26T19:10:04.340Z,9.40
2019-03-26T19:12:32.001Z,9.40
2019-03-26T19:14:59.686Z,9.40
2019-03-26T19:17:27.252Z,9.40
2019-03-26T19:19:54.857Z,9.40
2019-03-26T19:22:24.569Z,9.30
2019-03-26T19:24:52.294Z,9.30
2019-03-26T19:27:20.802Z,9.30
2019-03-26T19:29:48.478Z,9.30
2019-03-26T19:32:16.718Z,9.20
2019-03-26T19:34:44.844Z,9.20
2019-03-26T19:37:13.120Z,9.20
2019-03-26T19:39:41.286Z,9.10
2019-03-26T19:42:09.234Z,9.10
2019-03-26T19:44:37.383Z,9.00
2019-03-26T19:47:05.801Z,9.00
2019-03-26T19:49:33.518Z,9.00
2019-03-26T19:52:15.208Z,9.00
2019-03-26T19:54:52.487Z,8.90
2019-03-26T19:57:21.632Z,8.90
2019-03-26T19:59:54.992Z,8.90
2019-03-26T20:02:22.717Z,8.80
2019-03-26T20:04:50.987Z,8.90
2019-03-26T20:07:23.896Z,8.80
2019-03-26T20:09:51.532Z,8.80
2019-03-26T20:12:19.578Z,8.80
2019-03-26T20:14:47.369Z,8.90
2019-03-26T20:17:18.043Z,8.90
2019-03-26T20:19:45.926Z,9.00
2019-03-26T20:22:14.866Z,9.00
2019-03-26T20:24:42.648Z,9.00
2019-03-26T20:27:13.466Z,9.00
2019-03-26T20:29:41.616Z,9.00
2019-03-26T20:32:10.012Z,9.10
2019-03-26T20:34:37.730Z,9.00
2019-03-26T20:37:05.345Z,9.10
2019-03-26T20:39:33.024Z,9.10
2019-03-26T20:42:00.772Z,9.10
2019-03-26T20:44:29.285Z,9.10
2019-03-26T20:46:57.204Z,9.10
2019-03-26T20:49:24.938Z,9.00
2019-03-26T20:51:52.879Z,9.00
2019-03-26T20:54:20.655Z,9.00
2019-03-26T20:56:48.267Z,9.00
2019-03-26T20:59:15.827Z,9.00
2019-03-26T21:01:45.557Z,9.00
2019-03-26T21:04:13.798Z,9.00
2019-03-26T21:06:50.809Z,9.00
2019-03-26T21:09:18.722Z,9.00
2019-03-26T21:11:46.710Z,8.90
2019-03-26T21:14:15.408Z,8.90
2019-03-26T21:16:45.495Z,8.90
2019-03-26T21:19:13.189Z,8.80
2019-03-26T21:21:40.760Z,8.80
2019-03-26T21:24:08.343Z,8.70
2019-03-26T21:26:38.574Z,8.70
2019-03-26T21:29:13.212Z,8.70
2019-03-26T21:31:40.807Z,8.70
2019-03-26T21:34:08.501Z,8.60
2019-03-26T21:36:36.069Z,8.60
2019-03-26T21:39:04.653Z,8.60
2019-03-26T21:41:32.489Z,8.60
2019-03-26T21:44:04.462Z,8.60
2019-03-26T21:46:29.856Z,8.60
2019-03-26T21:48:57.735Z,8.60
2019-03-26T21:51:25.759Z,8.50
2019-03-26T21:53:54.099Z,8.60
2019-03-26T21:56:23.578Z,8.60
2019-03-26T21:58:51.477Z,8.60
2019-03-26T22:01:19.587Z,8.60
2019-03-26T22:03:47.246Z,8.60
2019-03-26T22:06:15.484Z,8.60
2019-03-26T22:08:43.358Z,8.50
2019-03-26T22:11:11.018Z,8.50
2019-03-26T22:13:38.758Z,8.50
2019-03-26T22:16:06.909Z,8.50
2019-03-26T22:18:34.481Z,8.50
2019-03-26T22:21:03.427Z,8.50
2019-03-26T22:23:31.312Z,8.50
2019-03-26T22:25:58.854Z,8.50
2019-03-26T22:28:26.352Z,8.50
2019-03-26T22:30:53.813Z,8.50
2019-03-26T22:33:21.345Z,8.60
2019-03-26T22:35:48.963Z,8.60
2019-03-26T22:38:16.541Z,8.60
2019-03-26T22:40:44.046Z,8.60
2019-03-26T22:43:11.637Z,8.60
2019-03-26T22:45:39.175Z,8.60
2019-03-26T22:48:06.869Z,8.60
2019-03-26T22:50:34.523Z,8.60
2019-03-26T22:53:02.247Z,8.60
2019-03-26T22:55:29.773Z,8.70
2019-03-26T22:57:57.577Z,8.60
2019-03-26T23:00:26.570Z,8.60
2019-03-26T23:02:57.106Z,8.60
2019-03-26T23:05:24.729Z,8.60
2019-03-26T23:07:52.170Z,8.60
2019-03-26T23:10:21.053Z,8.60
2019-03-26T23:12:48.598Z,8.60
2019-03-26T23:15:22.025Z,8.60
2019-03-26T23:17:49.653Z,8.60
2019-03-26T23:20:17.235Z,8.60
2019-03-26T23:22:45.031Z,8.60
2019-03-26T23:25:12.820Z,8.60
2019-03-26T23:27:40.485Z,8.60
2019-03-26T23:30:08.327Z,8.60
2019-03-26T23:32:35.838Z,8.70
2019-03-26T23:35:03.662Z,8.70
2019-03-26T23:37:31.191Z,8.60
2019-03-26T23:39:58.865Z,8.60
2019-03-26T23:42:26.450Z,8.60
2019-03-26T23:44:58.447Z,8.70
2019-03-26T23:47:23.506Z,8.70
2019-03-26T23:49:51.046Z,8.70
2019-03-26T23:52:18.713Z,8.70
2019-03-26T23:54:46.287Z,8.70
2019-03-26T23:57:13.814Z,8.70
2019-03-26T23:59:41.440Z,8.70
